createdAt,value
2023-02-22T00:02:25.768Z,7.42
2023-02-22T00:05:17.525Z,7.30
2023-02-22T00:08:09.880Z,7.24
2023-02-22T00:10:39.758Z,7.20
2023-02-22T00:13:48.657Z,7.18
2023-02-22T00:16:17.451Z,7.18
2023-02-22T00:18:57.968Z,7.16
2023-02-22T00:21:26.843Z,7.12
2023-02-22T00:24:42.989Z,7.04
2023-02-22T00:27:42.852Z,6.97
2023-02-22T00:30:13.920Z,6.95
2023-02-22T00:33:06.549Z,6.95
2023-02-22T00:36:07.015Z,6.93
2023-02-22T00:38:55.937Z,6.74
2023-02-22T00:41:47.867Z,6.66
2023-02-22T00:44:44.272Z,6.67
2023-02-22T00:47:21.341Z,6.68
2023-02-22T00:49:55.501Z,6.67
2023-02-22T00:52:44.866Z,6.68
2023-02-22T00:55:33.464Z,6.67
2023-02-22T00:58:25.551Z,6.67
2023-02-22T01:01:16.597Z,6.66
2023-02-22T01:03:49.239Z,6.63
2023-02-22T01:06:55.313Z,6.61
2023-02-22T01:09:51.951Z,6.58
2023-02-22T01:12:43.591Z,6.57
2023-02-22T01:15:31.711Z,6.58
2023-02-22T01:18:00.748Z,6.59
2023-02-22T01:20:36.820Z,6.53
2023-02-22T01:23:25.575Z,6.45
2023-02-22T01:26:18.580Z,6.40
2023-02-22T01:29:23.412Z,6.33
2023-02-22T01:31:55.981Z,6.30
2023-02-22T01:34:25.881Z,6.24
2023-02-22T01:37:14.904Z,6.11
2023-02-22T01:40:23.817Z,6.08
2023-02-22T01:43:31.784Z,6.05
2023-02-22T01:46:27.996Z,5.90
2023-02-22T01:49:26.575Z,5.91
2023-02-22T01:52:18.830Z,5.86
2023-02-22T01:55:10.683Z,5.79
2023-02-22T01:57:46.503Z,5.76
2023-02-22T02:00:19.292Z,5.72
2023-02-22T02:02:51.702Z,5.65
2023-02-22T02:05:59.531Z,5.58
2023-02-22T02:09:27.658Z,5.53
2023-02-22T02:12:39.200Z,5.47
2023-02-22T02:15:47.153Z,5.41
2023-02-22T02:18:36.116Z,5.36
2023-02-22T02:21:45.123Z,5.35
2023-02-22T02:24:37.351Z,5.36
2023-02-22T02:27:45.661Z,5.31
2023-02-22T02:30:54.778Z,5.23
2023-02-22T02:34:22.773Z,5.13
2023-02-22T02:37:31.237Z,5.13
2023-02-22T02:40:39.727Z,5.15
2023-02-22T02:43:31.492Z,5.09
2023-02-22T02:46:01.901Z,5.06
2023-02-22T02:49:05.938Z,4.98
2023-02-22T02:51:54.671Z,4.98
2023-02-22T02:55:03.219Z,4.96
2023-02-22T02:58:26.831Z,4.88
2023-02-22T03:01:16.186Z,4.85
2023-02-22T03:04:06.182Z,4.84
2023-02-22T03:06:44.820Z,4.83
2023-02-22T03:09:41.123Z,4.75
2023-02-22T03:12:30.550Z,4.77
2023-02-22T03:15:11.404Z,4.78
2023-02-22T03:18:03.661Z,4.77
2023-02-22T03:21:09.613Z,4.72
2023-02-22T03:23:56.134Z,4.69
2023-02-22T03:26:46.290Z,4.65
2023-02-22T03:29:54.472Z,4.62
2023-02-22T03:32:42.883Z,4.59
2023-02-22T03:35:19.288Z,4.58
2023-02-22T03:38:28.353Z,4.57
2023-02-22T03:40:57.569Z,4.53
2023-02-22T03:43:47.745Z,4.54
2023-02-22T03:46:56.803Z,4.54
2023-02-22T03:49:49.482Z,4.58
2023-02-22T03:52:42.467Z,4.53
2023-02-22T03:55:36.026Z,4.44
2023-02-22T03:58:14.307Z,4.47
2023-02-22T04:01:23.912Z,4.49
2023-02-22T04:04:48.027Z,4.47
2023-02-22T04:07:25.016Z,4.41
2023-02-22T04:10:52.816Z,4.36
2023-02-22T04:13:44.467Z,4.37
2023-02-22T04:16:17.382Z,4.38
2023-02-22T04:19:07.687Z,4.37
2023-02-22T04:22:14.669Z,4.31
2023-02-22T04:24:43.258Z,4.29
2023-02-22T04:27:32.074Z,4.36
2023-02-22T04:31:00.059Z,4.41
2023-02-22T04:34:08.692Z,4.36
2023-02-22T04:36:47.998Z,4.31
2023-02-22T04:39:38.830Z,4.32
2023-02-22T04:42:47.046Z,4.31
2023-02-22T04:45:34.809Z,4.29
2023-02-22T04:48:31.599Z,4.24
2023-02-22T04:51:42.996Z,4.16
2023-02-22T04:54:51.645Z,4.07
2023-02-22T04:57:40.203Z,3.98
2023-02-22T05:00:45.403Z,3.89
2023-02-22T05:03:49.530Z,3.80
2023-02-22T05:06:41.383Z,3.74
2023-02-22T05:09:47.644Z,3.57
2023-02-22T05:12:21.717Z,3.46
2023-02-22T05:15:11.484Z,3.39
2023-02-22T05:18:00.045Z,3.38
2023-02-22T05:20:48.474Z,3.38
2023-02-22T05:23:37.655Z,3.40
2023-02-22T05:26:28.946Z,3.39
2023-02-22T05:29:01.427Z,3.36
2023-02-22T05:31:49.554Z,3.31
2023-02-22T05:34:19.554Z,3.30
2023-02-22T05:36:52.689Z,3.30
2023-02-22T05:39:49.349Z,3.30
2023-02-22T05:42:43.178Z,3.35
2023-02-22T05:45:11.773Z,3.40
2023-02-22T05:48:39.547Z,3.47
2023-02-22T05:51:18.304Z,3.51
2023-02-22T05:54:07.164Z,3.56
2023-02-22T05:56:51.674Z,3.66
2023-02-22T05:59:40.579Z,3.72
2023-02-22T06:03:03.737Z,3.72
2023-02-22T06:05:41.186Z,3.76
2023-02-22T06:08:33.022Z,3.76
2023-02-22T06:11:06.794Z,3.80
2023-02-22T06:13:51.451Z,3.83
2023-02-22T06:16:39.650Z,3.85
2023-02-22T06:19:19.992Z,3.89
2023-02-22T06:21:56.223Z,3.95
2023-02-22T06:25:04.494Z,3.97
2023-02-22T06:28:20.051Z,4.02
2023-02-22T06:31:36.177Z,4.10
2023-02-22T06:34:25.776Z,4.11
2023-02-22T06:36:55.986Z,4.19
2023-02-22T06:39:25.961Z,4.23
2023-02-22T06:42:49.359Z,4.30
2023-02-22T06:45:37.283Z,4.37
2023-02-22T06:48:33.707Z,4.43
2023-02-22T06:51:37.720Z,4.49
2023-02-22T06:54:46.795Z,4.49
2023-02-22T06:57:36.713Z,4.50
2023-02-22T07:00:10.369Z,4.49
2023-02-22T07:03:05.654Z,4.61
2023-02-22T07:05:56.355Z,4.68
2023-02-22T07:09:08.078Z,4.76
2023-02-22T07:12:12.480Z,4.78
2023-02-22T07:15:00.650Z,4.83
2023-02-22T07:17:40.704Z,4.89
2023-02-22T07:20:31.142Z,4.97
2023-02-22T07:23:59.015Z,5.05
2023-02-22T07:26:27.192Z,5.08
2023-02-22T07:29:05.216Z,5.11
2023-02-22T07:32:14.014Z,5.23
2023-02-22T07:34:47.020Z,5.31
2023-02-22T07:37:15.033Z,5.37
2023-02-22T07:40:23.106Z,5.50
2023-02-22T07:43:11.375Z,5.56
2023-02-22T07:46:22.434Z,5.64
2023-02-22T07:49:13.242Z,5.77
2023-02-22T07:51:57.087Z,5.86
2023-02-22T07:54:49.933Z,6.01
2023-02-22T07:57:38.164Z,6.09
2023-02-22T08:00:28.797Z,6.20
2023-02-22T08:03:37.046Z,6.32
2023-02-22T08:06:26.277Z,6.43
2023-02-22T08:09:02.381Z,6.54
2023-02-22T08:11:38.307Z,6.66
2023-02-22T08:14:30.661Z,6.84
2023-02-22T08:17:22.249Z,6.94
2023-02-22T08:19:59.846Z,7.02
2023-02-22T08:22:43.932Z,7.17
2023-02-22T08:25:52.570Z,7.37
2023-02-22T08:28:41.844Z,7.50
2023-02-22T08:31:50.536Z,7.67
2023-02-22T08:34:39.617Z,7.82
2023-02-22T08:37:30.572Z,7.92
2023-02-22T08:40:18.931Z,8.08
2023-02-22T08:43:28.815Z,8.28
2023-02-22T08:46:18.096Z,8.37
2023-02-22T08:49:27.012Z,8.53
2023-02-22T08:52:22.452Z,8.62
2023-02-22T08:55:50.185Z,8.68
2023-02-22T08:58:39.002Z,8.82
2023-02-22T09:01:33.368Z,8.95
2023-02-22T09:04:44.969Z,9.17
2023-02-22T09:07:51.051Z,9.37
2023-02-22T09:10:40.821Z,9.61
2023-02-22T09:13:30.742Z,9.78
2023-02-22T09:16:06.362Z,9.90
2023-02-22T09:18:52.048Z,10.00
2023-02-22T09:21:38.450Z,10.13
2023-02-22T09:24:28.130Z,10.29
2023-02-22T09:26:58.839Z,10.44
2023-02-22T09:29:54.593Z,10.69
2023-02-22T09:33:00.320Z,10.74
2023-02-22T09:35:56.077Z,10.86
2023-02-22T09:38:29.719Z,11.00
2023-02-22T09:41:03.905Z,11.06
2023-02-22T09:43:32.971Z,11.22
2023-02-22T09:46:23.045Z,11.45
2023-02-22T09:48:59.625Z,11.56
2023-02-22T09:51:30.022Z,11.76
2023-02-22T09:54:00.653Z,11.83
2023-02-22T09:56:31.543Z,12.04
2023-02-22T09:59:15.148Z,12.22
2023-02-22T10:01:43.777Z,12.29
2023-02-22T10:04:16.396Z,12.33
2023-02-22T10:07:20.371Z,12.56
2023-02-22T10:10:12.299Z,12.63
2023-02-22T10:13:00.185Z,12.75
2023-02-22T10:15:49.066Z,13.05
2023-02-22T10:18:19.014Z,13.23
2023-02-22T10:21:08.665Z,13.52
2023-02-22T10:23:41.477Z,13.83
2023-02-22T10:26:37.576Z,13.73
2023-02-22T10:29:31.171Z,13.79
2023-02-22T10:32:20.148Z,13.95
2023-02-22T10:34:50.823Z,13.80
2023-02-22T10:38:03.014Z,13.88
2023-02-22T10:40:36.613Z,13.95
2023-02-22T10:43:13.774Z,14.08
2023-02-22T10:46:09.736Z,14.18
2023-02-22T10:48:58.309Z,14.22
2023-02-22T10:52:03.750Z,14.42
2023-02-22T10:54:52.617Z,14.49
2023-02-22T10:57:53.135Z,14.56
2023-02-22T11:00:22.454Z,14.62
2023-02-22T11:02:50.279Z,14.92
2023-02-22T11:05:36.537Z,14.93
2023-02-22T11:08:11.239Z,15.04
2023-02-22T11:11:00.515Z,15.18
2023-02-22T11:13:38.045Z,15.04
2023-02-22T11:16:35.821Z,15.11
2023-02-22T11:19:12.669Z,15.25
2023-02-22T11:22:02.396Z,15.09
2023-02-22T11:24:48.649Z,15.09
2023-02-22T11:27:37.827Z,15.32
2023-02-22T11:30:09.140Z,15.34
2023-02-22T11:32:59.338Z,15.53
2023-02-22T11:35:55.668Z,15.74
2023-02-22T11:38:26.517Z,15.98
2023-02-22T11:41:18.919Z,16.20
2023-02-22T11:43:47.476Z,16.43
2023-02-22T11:46:27.749Z,16.41
2023-02-22T11:49:00.024Z,16.40
2023-02-22T11:51:30.016Z,16.09
2023-02-22T11:54:07.066Z,15.92
2023-02-22T11:56:38.374Z,15.86
2023-02-22T11:59:11.334Z,15.65
2023-02-22T12:01:42.114Z,15.69
2023-02-22T12:04:13.378Z,15.62
2023-02-22T12:06:43.634Z,15.57
2023-02-22T12:09:37.389Z,15.42
2023-02-22T12:12:21.551Z,15.40
2023-02-22T12:15:09.368Z,15.32
2023-02-22T12:17:59.810Z,15.23
2023-02-22T12:20:37.196Z,15.36
2023-02-22T12:23:28.034Z,15.59
2023-02-22T12:26:03.874Z,15.76
2023-02-22T12:28:59.932Z,15.67
2023-02-22T12:31:29.990Z,15.70
2023-02-22T12:34:01.122Z,15.63
2023-02-22T12:36:29.787Z,15.59
2023-02-22T12:38:58.610Z,15.55
2023-02-22T12:41:28.371Z,15.53
2023-02-22T12:43:57.738Z,15.51
2023-02-22T12:46:27.547Z,15.40
2023-02-22T12:48:57.286Z,15.33
2023-02-22T12:51:26.314Z,15.18
2023-02-22T12:54:17.921Z,15.01
2023-02-22T12:56:48.630Z,14.92
2023-02-22T12:59:16.847Z,14.92
2023-02-22T13:02:07.141Z,14.69
2023-02-22T13:04:35.353Z,14.63
2023-02-22T13:07:04.289Z,14.58
2023-02-22T13:09:50.479Z,14.54
2023-02-22T13:12:19.953Z,14.48
2023-02-22T13:14:49.148Z,14.51
2023-02-22T13:17:19.350Z,14.51
2023-02-22T13:20:08.046Z,14.57
2023-02-22T13:22:58.031Z,14.63
2023-02-22T13:25:41.769Z,14.63
2023-02-22T13:28:15.821Z,14.49
2023-02-22T13:30:44.543Z,14.32
2023-02-22T13:33:13.470Z,14.38
2023-02-22T13:35:56.208Z,14.45
2023-02-22T13:38:45.043Z,14.40
2023-02-22T13:41:17.162Z,14.40
2023-02-22T13:43:47.476Z,14.39
2023-02-22T13:46:21.142Z,14.46
2023-02-22T13:48:50.715Z,14.50
2023-02-22T13:51:19.599Z,14.42
2023-02-22T13:53:49.275Z,14.48
2023-02-22T13:56:43.483Z,14.52
2023-02-22T13:59:27.390Z,14.54
2023-02-22T14:02:05.457Z,14.59
2023-02-22T14:04:35.807Z,14.63
2023-02-22T14:07:15.366Z,14.52
2023-02-22T14:09:45.406Z,14.82
2023-02-22T14:12:13.122Z,15.29
2023-02-22T14:14:42.078Z,15.94
2023-02-22T14:17:18.487Z,16.49
2023-02-22T14:19:47.775Z,16.78
2023-02-22T14:22:16.796Z,17.05
2023-02-22T14:24:45.832Z,16.69
2023-02-22T14:27:15.937Z,16.60
2023-02-22T14:29:44.484Z,16.45
2023-02-22T14:32:13.464Z,16.30
2023-02-22T14:34:42.185Z,16.24
2023-02-22T14:37:11.413Z,16.12
2023-02-22T14:39:41.780Z,15.76
2023-02-22T14:42:11.300Z,15.54
2023-02-22T14:44:40.939Z,15.30
2023-02-22T14:47:10.601Z,14.96
2023-02-22T14:49:39.288Z,14.90
2023-02-22T14:52:08.332Z,14.82
2023-02-22T14:54:37.465Z,14.91
2023-02-22T14:57:05.353Z,15.12
2023-02-22T14:59:34.023Z,15.14
2023-02-22T15:02:11.320Z,15.16
2023-02-22T15:04:39.983Z,15.08
2023-02-22T15:07:08.979Z,15.14
2023-02-22T15:09:39.118Z,15.17
2023-02-22T15:12:07.063Z,15.08
2023-02-22T15:14:56.856Z,15.26
2023-02-22T15:18:09.093Z,15.93
2023-02-22T15:20:43.284Z,16.37
2023-02-22T15:23:14.737Z,16.66
2023-02-22T15:25:44.537Z,16.89
2023-02-22T15:28:17.338Z,16.90
2023-02-22T15:30:58.644Z,16.86
2023-02-22T15:33:47.271Z,16.85
2023-02-22T15:36:17.031Z,16.91
2023-02-22T15:38:47.368Z,16.90
2023-02-22T15:41:16.827Z,16.77
2023-02-22T15:43:49.360Z,16.60
2023-02-22T15:46:21.685Z,16.46
2023-02-22T15:49:05.991Z,16.05
2023-02-22T15:51:35.215Z,15.45
2023-02-22T15:54:07.921Z,15.18
2023-02-22T15:56:39.506Z,14.91
2023-02-22T15:59:31.586Z,14.54
2023-02-22T16:02:12.350Z,14.19
2023-02-22T16:04:48.519Z,13.91
2023-02-22T16:08:09.235Z,13.60
2023-02-22T16:10:53.270Z,13.32
2023-02-22T16:13:38.246Z,13.13
2023-02-22T16:16:27.030Z,12.92
2023-02-22T16:19:04.538Z,12.72
2023-02-22T16:21:52.477Z,12.51
2023-02-22T16:24:28.996Z,12.35
2023-02-22T16:27:16.832Z,12.27
2023-02-22T16:29:47.677Z,12.16
2023-02-22T16:32:33.359Z,12.04
2023-02-22T16:35:01.186Z,11.92
2023-02-22T16:37:36.581Z,11.80
2023-02-22T16:40:05.965Z,11.66
2023-02-22T16:42:39.136Z,11.55
2023-02-22T16:45:29.138Z,11.41
2023-02-22T16:48:14.569Z,11.30
2023-02-22T16:51:05.115Z,11.18
2023-02-22T16:53:57.985Z,11.07
2023-02-22T16:56:29.642Z,10.95
2023-02-22T16:59:00.908Z,10.84
2023-02-22T17:02:03.954Z,10.72
2023-02-22T17:04:34.137Z,10.64
2023-02-22T17:07:11.387Z,10.55
2023-02-22T17:10:02.183Z,10.47
2023-02-22T17:12:45.978Z,10.39
2023-02-22T17:15:25.002Z,10.31
2023-02-22T17:18:36.621Z,10.23
2023-02-22T17:21:07.433Z,10.16
2023-02-22T17:23:51.575Z,10.10
2023-02-22T17:26:59.392Z,10.01
2023-02-22T17:30:03.537Z,9.95
2023-02-22T17:32:55.477Z,9.90
2023-02-22T17:35:44.329Z,9.83
2023-02-22T17:38:20.780Z,9.77
2023-02-22T17:41:09.379Z,9.70
2023-02-22T17:43:59.342Z,9.66
2023-02-22T17:47:09.333Z,9.61
2023-02-22T17:49:57.320Z,9.57
2023-02-22T17:53:07.379Z,9.50
2023-02-22T17:55:55.563Z,9.43
2023-02-22T17:59:11.645Z,9.35
2023-02-22T18:01:40.541Z,9.30
2023-02-22T18:04:30.296Z,9.27
2023-02-22T18:07:19.196Z,9.21
2023-02-22T18:10:08.118Z,9.13
2023-02-22T18:13:19.715Z,9.05
2023-02-22T18:16:27.736Z,8.97
2023-02-22T18:19:23.649Z,8.90
2023-02-22T18:21:56.119Z,8.85
2023-02-22T18:24:32.381Z,8.81
2023-02-22T18:27:41.876Z,8.78
2023-02-22T18:30:11.632Z,8.74
2023-02-22T18:32:41.816Z,8.75
2023-02-22T18:35:51.831Z,8.72
2023-02-22T18:38:35.969Z,8.67
2023-02-22T18:41:05.157Z,8.63
2023-02-22T18:44:06.475Z,8.62
2023-02-22T18:46:59.272Z,8.58
2023-02-22T18:49:31.496Z,8.56
2023-02-22T18:52:25.304Z,8.54
2023-02-22T18:55:13.549Z,8.51
2023-02-22T18:58:23.406Z,8.48
2023-02-22T19:01:31.278Z,8.44
2023-02-22T19:04:20.355Z,8.41
2023-02-22T19:07:05.070Z,8.37
2023-02-22T19:09:45.912Z,8.36
2023-02-22T19:12:54.222Z,8.33
2023-02-22T19:15:24.681Z,8.31
2023-02-22T19:18:36.680Z,8.26
2023-02-22T19:21:25.460Z,8.23
2023-02-22T19:24:34.091Z,8.21
2023-02-22T19:27:24.515Z,8.17
2023-02-22T19:30:32.591Z,8.13
2023-02-22T19:33:01.223Z,8.12
2023-02-22T19:35:50.858Z,8.10
2023-02-22T19:38:20.158Z,8.07
2023-02-22T19:41:10.237Z,7.97
2023-02-22T19:44:00.533Z,7.96
2023-02-22T19:46:56.586Z,7.95
2023-02-22T19:49:48.435Z,7.93
2023-02-22T19:52:56.282Z,7.93
2023-02-22T19:56:05.718Z,7.98
2023-02-22T19:59:29.076Z,7.99
2023-02-22T20:02:19.982Z,7.98
2023-02-22T20:05:31.715Z,7.94
2023-02-22T20:08:00.872Z,7.91
2023-02-22T20:10:28.918Z,7.91
2023-02-22T20:13:52.291Z,7.91
2023-02-22T20:16:20.623Z,7.92
2023-02-22T20:19:36.534Z,7.94
2023-02-22T20:22:10.085Z,7.92
2023-02-22T20:24:50.048Z,7.91
2023-02-22T20:27:33.682Z,7.87
2023-02-22T20:30:41.571Z,7.81
2023-02-22T20:33:37.567Z,7.76
2023-02-22T20:36:42.309Z,7.74
2023-02-22T20:39:31.493Z,7.72
2023-02-22T20:42:35.030Z,7.68
2023-02-22T20:45:04.072Z,7.68
2023-02-22T20:48:15.765Z,7.63
2023-02-22T20:50:45.321Z,7.60
2023-02-22T20:53:37.158Z,7.56
2023-02-22T20:56:53.288Z,7.51
2023-02-22T20:59:51.392Z,7.46
2023-02-22T21:02:59.574Z,7.40
2023-02-22T21:05:55.638Z,7.36
2023-02-22T21:08:25.781Z,7.33
2023-02-22T21:11:14.782Z,7.24
2023-02-22T21:13:42.896Z,7.19
2023-02-22T21:16:30.747Z,7.13
2023-02-22T21:19:54.179Z,7.04
2023-02-22T21:22:43.414Z,6.95
2023-02-22T21:25:51.930Z,6.88
2023-02-22T21:29:19.902Z,6.81
2023-02-22T21:32:29.837Z,6.75
2023-02-22T21:35:14.417Z,6.70
2023-02-22T21:38:06.202Z,6.66
2023-02-22T21:41:14.971Z,6.63
2023-02-22T21:43:43.953Z,6.59
2023-02-22T21:46:34.971Z,6.55
2023-02-22T21:49:25.430Z,6.52
2023-02-22T21:51:53.344Z,6.50
2023-02-22T21:54:56.259Z,6.46
2023-02-22T21:58:00.180Z,6.41
2023-02-22T22:01:09.089Z,6.36
2023-02-22T22:04:32.645Z,6.30
2023-02-22T22:07:20.108Z,6.27
2023-02-22T22:10:09.465Z,6.23
2023-02-22T22:12:54.346Z,6.19
2023-02-22T22:15:43.343Z,6.14
2023-02-22T22:18:59.091Z,6.09
2023-02-22T22:22:11.001Z,6.05
2023-02-22T22:25:00.729Z,6.01
2023-02-22T22:27:38.571Z,5.97
2023-02-22T22:30:47.476Z,5.93
2023-02-22T22:33:55.921Z,5.89
2023-02-22T22:36:44.488Z,5.84
2023-02-22T22:39:17.131Z,5.80
2023-02-22T22:42:04.952Z,5.76
2023-02-22T22:45:16.795Z,5.72
2023-02-22T22:48:24.891Z,5.66
2023-02-22T22:51:13.912Z,5.62
2023-02-22T22:54:01.859Z,5.55
2023-02-22T22:56:51.125Z,5.53
2023-02-22T22:59:27.987Z,5.51
2023-02-22T23:02:43.682Z,5.48
2023-02-22T23:05:33.667Z,5.47
2023-02-22T23:08:49.736Z,5.47
2023-02-22T23:12:00.314Z,5.46
2023-02-22T23:14:49.803Z,5.46
2023-02-22T23:17:38.508Z,5.46
2023-02-22T23:20:24.357Z,5.47
2023-02-22T23:23:33.331Z,5.45
2023-02-22T23:26:41.844Z,5.42
2023-02-22T23:29:30.603Z,5.42
2023-02-22T23:32:19.057Z,5.41
2023-02-22T23:34:55.086Z,5.41
2023-02-22T23:37:36.500Z,5.40
2023-02-22T23:40:40.824Z,5.43
2023-02-22T23:43:34.546Z,5.40
2023-02-22T23:46:25.097Z,5.40
2023-02-22T23:48:59.465Z,5.37
2023-02-22T23:51:52.264Z,5.32
2023-02-22T23:54:58.428Z,5.26
2023-02-22T23:58:26.261Z,5.24
